sensor_id;sensor_type;location;lat;lon;timestamp;temperature;humidity
12853;DHT22;6495;51.808;7.478;2023-03-01T00:01:36;0.70;99.90
12853;DHT22;6495;51.808;7.478;2023-03-01T00:04:04;0.70;99.90
12853;DHT22;6495;51.808;7.478;2023-03-01T00:06:32;0.70;99.90
12853;DHT22;6495;51.808;7.478;2023-03-01T00:09:00;0.60;99.90
12853;DHT22;6495;51.808;7.478;2023-03-01T00:11:30;0.60;99.90
12853;DHT22;6495;51.808;7.478;2023-03-01T00:14:01;0.60;99.90
12853;DHT22;6495;51.808;7.478;2023-03-01T00:16:33;0.60;99.90
12853;DHT22;6495;51.808;7.478;2023-03-01T00:19:06;0.50;99.90
12853;DHT22;6495;51.808;7.478;2023-03-01T00:21:35;0.50;99.90
12853;DHT22;6495;51.808;7.478;2023-03-01T00:24:03;0.50;99.90
12853;DHT22;6495;51.808;7.478;2023-03-01T00:26:32;0.50;99.90
12853;DHT22;6495;51.808;7.478;2023-03-01T00:29:01;0.50;99.90
12853;DHT22;6495;51.808;7.478;2023-03-01T00:31:31;0.40;99.90
12853;DHT22;6495;51.808;7.478;2023-03-01T00:34:03;0.40;99.90
12853;DHT22;6495;51.808;7.478;2023-03-01T00:36:34;0.40;99.90
12853;DHT22;6495;51.808;7.478;2023-03-01T00:39:07;0.40;99.90
12853;DHT22;6495;51.808;7.478;2023-03-01T00:41:38;0.40;99.90
12853;DHT22;6495;51.808;7.478;2023-03-01T00:44:08;0.40;99.90
12853;DHT22;6495;51.808;7.478;2023-03-01T00:46:37;0.40;99.90
12853;DHT22;6495;51.808;7.478;2023-03-01T00:49:07;0.40;99.90
12853;DHT22;6495;51.808;7.478;2023-03-01T00:51:35;0.30;99.90
12853;DHT22;6495;51.808;7.478;2023-03-01T00:54:03;0.30;99.90
12853;DHT22;6495;51.808;7.478;2023-03-01T00:56:32;0.30;99.90
12853;DHT22;6495;51.808;7.478;2023-03-01T00:59:00;0.20;99.90
12853;DHT22;6495;51.808;7.478;2023-03-01T01:01:30;0.20;99.90
12853;DHT22;6495;51.808;7.478;2023-03-01T01:04:00;0.20;99.90
12853;DHT22;6495;51.808;7.478;2023-03-01T01:06:33;0.10;99.90
12853;DHT22;6495;51.808;7.478;2023-03-01T01:09:04;0.10;99.90
12853;DHT22;6495;51.808;7.478;2023-03-01T01:11:34;0.00;99.90
12853;DHT22;6495;51.808;7.478;2023-03-01T01:14:03;0.00;99.90
12853;DHT22;6495;51.808;7.478;2023-03-01T01:16:31;0.00;99.90
12853;DHT22;6495;51.808;7.478;2023-03-01T01:19:01;0.00;99.90
12853;DHT22;6495;51.808;7.478;2023-03-01T01:21:30;0.00;99.90
12853;DHT22;6495;51.808;7.478;2023-03-01T01:24:00;-0.10;99.90
12853;DHT22;6495;51.808;7.478;2023-03-01T01:26:32;-0.10;99.90
12853;DHT22;6495;51.808;7.478;2023-03-01T01:29:03;-0.10;99.90
12853;DHT22;6495;51.808;7.478;2023-03-01T01:31:33;-0.10;99.90
12853;DHT22;6495;51.808;7.478;2023-03-01T01:34:04;-0.10;99.90
12853;DHT22;6495;51.808;7.478;2023-03-01T01:36:35;-0.10;99.90
12853;DHT22;6495;51.808;7.478;2023-03-01T01:39:04;-0.20;99.90
12853;DHT22;6495;51.808;7.478;2023-03-01T01:41:32;-0.20;99.90
12853;DHT22;6495;51.808;7.478;2023-03-01T01:44:13;-0.20;99.90
12853;DHT22;6495;51.808;7.478;2023-03-01T01:46:46;-0.20;99.90
12853;DHT22;6495;51.808;7.478;2023-03-01T01:49:20;-0.20;99.90
12853;DHT22;6495;51.808;7.478;2023-03-01T01:52:00;-0.20;99.90
12853;DHT22;6495;51.808;7.478;2023-03-01T01:54:39;-0.20;99.90
12853;DHT22;6495;51.808;7.478;2023-03-01T01:57:14;-0.20;99.90
12853;DHT22;6495;51.808;7.478;2023-03-01T01:59:49;-0.30;99.90
12853;DHT22;6495;51.808;7.478;2023-03-01T02:02:20;-0.30;99.90
12853;DHT22;6495;51.808;7.478;2023-03-01T02:04:49;-0.30;99.90
12853;DHT22;6495;51.808;7.478;2023-03-01T02:07:27;-0.30;99.90
12853;DHT22;6495;51.808;7.478;2023-03-01T02:09:56;-0.40;99.90
12853;DHT22;6495;51.808;7.478;2023-03-01T02:12:25;-0.40;99.90
12853;DHT22;6495;51.808;7.478;2023-03-01T02:14:54;-0.40;99.90
12853;DHT22;6495;51.808;7.478;2023-03-01T02:17:22;-0.40;99.90
12853;DHT22;6495;51.808;7.478;2023-03-01T02:20:01;-0.40;99.90
12853;DHT22;6495;51.808;7.478;2023-03-01T02:22:40;-0.40;99.90
12853;DHT22;6495;51.808;7.478;2023-03-01T02:25:28;-0.40;99.90
12853;DHT22;6495;51.808;7.478;2023-03-01T02:28:05;-0.50;99.90
12853;DHT22;6495;51.808;7.478;2023-03-01T02:30:41;-0.50;99.90
12853;DHT22;6495;51.808;7.478;2023-03-01T02:33:25;-0.50;99.90
12853;DHT22;6495;51.808;7.478;2023-03-01T02:35:55;-0.50;99.90
12853;DHT22;6495;51.808;7.478;2023-03-01T02:38:24;-0.50;99.90
12853;DHT22;6495;51.808;7.478;2023-03-01T02:40:52;-0.50;99.90
12853;DHT22;6495;51.808;7.478;2023-03-01T02:43:27;-0.50;99.90
12853;DHT22;6495;51.808;7.478;2023-03-01T02:46:05;-0.50;99.90
12853;DHT22;6495;51.808;7.478;2023-03-01T02:48:44;-0.50;99.90
12853;DHT22;6495;51.808;7.478;2023-03-01T02:51:41;-0.50;99.90
12853;DHT22;6495;51.808;7.478;2023-03-01T02:54:22;-0.50;99.90
12853;DHT22;6495;51.808;7.478;2023-03-01T02:56:55;-0.50;99.90
12853;DHT22;6495;51.808;7.478;2023-03-01T02:59:27;-0.60;99.90
12853;DHT22;6495;51.808;7.478;2023-03-01T03:02:00;-0.60;99.90
12853;DHT22;6495;51.808;7.478;2023-03-01T03:04:29;-0.60;99.90
12853;DHT22;6495;51.808;7.478;2023-03-01T03:06:57;-0.60;99.90
12853;DHT22;6495;51.808;7.478;2023-03-01T03:09:26;-0.60;99.90
12853;DHT22;6495;51.808;7.478;2023-03-01T03:11:55;-0.60;99.90
12853;DHT22;6495;51.808;7.478;2023-03-01T03:14:24;-0.60;99.90
12853;DHT22;6495;51.808;7.478;2023-03-01T03:16:53;-0.60;99.90
12853;DHT22;6495;51.808;7.478;2023-03-01T03:19:22;-0.60;99.90
12853;DHT22;6495;51.808;7.478;2023-03-01T03:21:50;-0.60;99.90
12853;DHT22;6495;51.808;7.478;2023-03-01T03:24:19;-0.60;99.90
12853;DHT22;6495;51.808;7.478;2023-03-01T03:26:47;-0.70;99.90
12853;DHT22;6495;51.808;7.478;2023-03-01T03:29:15;-0.70;99.90
12853;DHT22;6495;51.808;7.478;2023-03-01T03:31:43;-0.70;99.90
12853;DHT22;6495;51.808;7.478;2023-03-01T03:34:11;-0.70;99.90
12853;DHT22;6495;51.808;7.478;2023-03-01T03:36:46;-0.70;99.90
12853;DHT22;6495;51.808;7.478;2023-03-01T03:39:14;-0.80;99.90
12853;DHT22;6495;51.808;7.478;2023-03-01T03:41:42;-0.80;99.90
12853;DHT22;6495;51.808;7.478;2023-03-01T03:44:10;-0.80;99.90
12853;DHT22;6495;51.808;7.478;2023-03-01T03:46:38;-0.80;99.90
12853;DHT22;6495;51.808;7.478;2023-03-01T03:49:06;-0.80;99.90
12853;DHT22;6495;51.808;7.478;2023-03-01T03:51:35;-0.80;99.90
12853;DHT22;6495;51.808;7.478;2023-03-01T03:54:04;-0.90;99.90
12853;DHT22;6495;51.808;7.478;2023-03-01T03:56:32;-0.90;99.90
12853;DHT22;6495;51.808;7.478;2023-03-01T03:59:01;-0.90;99.90
12853;DHT22;6495;51.808;7.478;2023-03-01T04:01:29;-0.90;99.90
12853;DHT22;6495;51.808;7.478;2023-03-01T04:03:57;-0.90;99.90
12853;DHT22;6495;51.808;7.478;2023-03-01T04:06:31;-0.90;99.90
12853;DHT22;6495;51.808;7.478;2023-03-01T04:08:59;-0.90;99.90
12853;DHT22;6495;51.808;7.478;2023-03-01T04:11:30;-0.90;99.90
12853;DHT22;6495;51.808;7.478;2023-03-01T04:14:01;-0.90;99.90
12853;DHT22;6495;51.808;7.478;2023-03-01T04:16:31;-1.00;99.90
12853;DHT22;6495;51.808;7.478;2023-03-01T04:18:59;-1.00;99.90
12853;DHT22;6495;51.808;7.478;2023-03-01T04:21:28;-1.00;99.90
12853;DHT22;6495;51.808;7.478;2023-03-01T04:23:56;-1.00;99.90
12853;DHT22;6495;51.808;7.478;2023-03-01T04:26:24;-1.00;99.90
12853;DHT22;6495;51.808;7.478;2023-03-01T04:28:55;-1.00;99.90
12853;DHT22;6495;51.808;7.478;2023-03-01T04:31:25;-1.00;99.90
12853;DHT22;6495;51.808;7.478;2023-03-01T04:33:54;-1.00;99.90
12853;DHT22;6495;51.808;7.478;2023-03-01T04:36:25;-1.00;99.90
12853;DHT22;6495;51.808;7.478;2023-03-01T04:38:55;-1.00;99.90
12853;DHT22;6495;51.808;7.478;2023-03-01T04:41:24;-1.00;99.90
12853;DHT22;6495;51.808;7.478;2023-03-01T04:43:54;-1.00;99.90
12853;DHT22;6495;51.808;7.478;2023-03-01T04:46:23;-1.00;99.90
12853;DHT22;6495;51.808;7.478;2023-03-01T04:48:52;-1.00;99.90
12853;DHT22;6495;51.808;7.478;2023-03-01T04:51:20;-1.00;99.90
12853;DHT22;6495;51.808;7.478;2023-03-01T04:53:48;-1.00;99.90
12853;DHT22;6495;51.808;7.478;2023-03-01T04:56:17;-1.10;99.90
12853;DHT22;6495;51.808;7.478;2023-03-01T04:58:45;-1.00;99.90
12853;DHT22;6495;51.808;7.478;2023-03-01T05:01:17;-1.00;99.90
12853;DHT22;6495;51.808;7.478;2023-03-01T05:03:48;-1.00;99.90
12853;DHT22;6495;51.808;7.478;2023-03-01T05:06:19;-1.00;99.90
12853;DHT22;6495;51.808;7.478;2023-03-01T05:08:48;-1.00;99.90
12853;DHT22;6495;51.808;7.478;2023-03-01T05:11:16;-1.00;99.90
12853;DHT22;6495;51.808;7.478;2023-03-01T05:13:44;-1.00;99.90
12853;DHT22;6495;51.808;7.478;2023-03-01T05:16:14;-1.10;99.90
12853;DHT22;6495;51.808;7.478;2023-03-01T05:18:43;-1.00;99.90
12853;DHT22;6495;51.808;7.478;2023-03-01T05:21:13;-1.10;99.90
12853;DHT22;6495;51.808;7.478;2023-03-01T05:23:43;-1.10;99.90
12853;DHT22;6495;51.808;7.478;2023-03-01T05:26:13;-1.10;99.90
12853;DHT22;6495;51.808;7.478;2023-03-01T05:28:54;-1.10;99.90
12853;DHT22;6495;51.808;7.478;2023-03-01T05:31:27;-1.10;99.90
12853;DHT22;6495;51.808;7.478;2023-03-01T05:33:57;-1.10;99.90
12853;DHT22;6495;51.808;7.478;2023-03-01T05:36:25;-1.10;99.90
12853;DHT22;6495;51.808;7.478;2023-03-01T05:38:53;-1.10;99.90
12853;DHT22;6495;51.808;7.478;2023-03-01T05:41:22;-1.10;99.90
12853;DHT22;6495;51.808;7.478;2023-03-01T05:43:50;-1.10;99.90
12853;DHT22;6495;51.808;7.478;2023-03-01T05:46:18;-1.10;99.90
12853;DHT22;6495;51.808;7.478;2023-03-01T05:48:48;-1.10;99.90
12853;DHT22;6495;51.808;7.478;2023-03-01T05:51:16;-1.10;99.90
12853;DHT22;6495;51.808;7.478;2023-03-01T05:53:45;-1.10;99.90
12853;DHT22;6495;51.808;7.478;2023-03-01T05:56:13;-1.10;99.90
12853;DHT22;6495;51.808;7.478;2023-03-01T05:58:41;-1.10;99.90
12853;DHT22;6495;51.808;7.478;2023-03-01T06:01:11;-1.10;99.90
12853;DHT22;6495;51.808;7.478;2023-03-01T06:03:40;-1.20;99.90
12853;DHT22;6495;51.808;7.478;2023-03-01T06:06:10;-1.20;99.90
12853;DHT22;6495;51.808;7.478;2023-03-01T06:08:38;-1.20;99.90
12853;DHT22;6495;51.808;7.478;2023-03-01T06:11:06;-1.20;99.90
12853;DHT22;6495;51.808;7.478;2023-03-01T06:13:34;-1.20;99.90
12853;DHT22;6495;51.808;7.478;2023-03-01T06:16:04;-1.20;99.90
12853;DHT22;6495;51.808;7.478;2023-03-01T06:18:34;-1.20;99.90
12853;DHT22;6495;51.808;7.478;2023-03-01T06:21:02;-1.20;99.90
12853;DHT22;6495;51.808;7.478;2023-03-01T06:23:32;-1.20;99.90
12853;DHT22;6495;51.808;7.478;2023-03-01T06:26:05;-1.20;99.90
12853;DHT22;6495;51.808;7.478;2023-03-01T06:28:34;-1.20;99.90
12853;DHT22;6495;51.808;7.478;2023-03-01T06:31:03;-1.20;99.90
12853;DHT22;6495;51.808;7.478;2023-03-01T06:33:35;-1.20;99.90
12853;DHT22;6495;51.808;7.478;2023-03-01T06:36:04;-1.20;99.90
12853;DHT22;6495;51.808;7.478;2023-03-01T06:38:34;-1.20;99.90
12853;DHT22;6495;51.808;7.478;2023-03-01T06:41:02;-1.20;99.90
12853;DHT22;6495;51.808;7.478;2023-03-01T06:43:30;-1.20;99.90
12853;DHT22;6495;51.808;7.478;2023-03-01T06:45:59;-1.20;99.90
12853;DHT22;6495;51.808;7.478;2023-03-01T06:48:27;-1.20;99.90
12853;DHT22;6495;51.808;7.478;2023-03-01T06:50:58;-1.20;99.90
12853;DHT22;6495;51.808;7.478;2023-03-01T06:53:27;-1.10;99.90
12853;DHT22;6495;51.808;7.478;2023-03-01T06:55:57;-1.10;99.90
12853;DHT22;6495;51.808;7.478;2023-03-01T06:58:26;-1.10;99.90
12853;DHT22;6495;51.808;7.478;2023-03-01T07:00:55;-1.10;99.90
12853;DHT22;6495;51.808;7.478;2023-03-01T07:03:23;-1.10;99.90
12853;DHT22;6495;51.808;7.478;2023-03-01T07:05:51;-1.10;99.90
12853;DHT22;6495;51.808;7.478;2023-03-01T07:08:20;-1.10;99.90
12853;DHT22;6495;51.808;7.478;2023-03-01T07:10:48;-1.10;99.90
12853;DHT22;6495;51.808;7.478;2023-03-01T07:13:24;-1.10;99.90
12853;DHT22;6495;51.808;7.478;2023-03-01T07:15:52;-1.10;99.90
12853;DHT22;6495;51.808;7.478;2023-03-01T07:18:20;-1.00;99.90
12853;DHT22;6495;51.808;7.478;2023-03-01T07:20:49;-1.00;99.90
12853;DHT22;6495;51.808;7.478;2023-03-01T07:23:17;-1.00;99.90
12853;DHT22;6495;51.808;7.478;2023-03-01T07:25:51;-0.90;99.90
12853;DHT22;6495;51.808;7.478;2023-03-01T07:28:24;-0.90;99.90
12853;DHT22;6495;51.808;7.478;2023-03-01T07:30:52;-0.80;99.90
12853;DHT22;6495;51.808;7.478;2023-03-01T07:33:21;-0.80;99.90
12853;DHT22;6495;51.808;7.478;2023-03-01T07:35:55;-0.70;99.90
12853;DHT22;6495;51.808;7.478;2023-03-01T07:38:25;-0.70;99.90
12853;DHT22;6495;51.808;7.478;2023-03-01T07:40:57;-0.60;99.90
12853;DHT22;6495;51.808;7.478;2023-03-01T07:43:28;-0.50;99.90
12853;DHT22;6495;51.808;7.478;2023-03-01T07:45:58;-0.50;99.90
12853;DHT22;6495;51.808;7.478;2023-03-01T07:48:28;-0.40;99.90
12853;DHT22;6495;51.808;7.478;2023-03-01T07:50:58;-0.40;99.90
12853;DHT22;6495;51.808;7.478;2023-03-01T07:53:27;-0.30;99.90
12853;DHT22;6495;51.808;7.478;2023-03-01T07:56:02;-0.20;99.90
12853;DHT22;6495;51.808;7.478;2023-03-01T07:58:33;-0.10;99.90
12853;DHT22;6495;51.808;7.478;2023-03-01T08:01:02;0.00;99.90
12853;DHT22;6495;51.808;7.478;2023-03-01T08:03:32;0.00;99.90
12853;DHT22;6495;51.808;7.478;2023-03-01T08:06:00;0.10;99.90
12853;DHT22;6495;51.808;7.478;2023-03-01T08:08:28;0.20;99.90
12853;DHT22;6495;51.808;7.478;2023-03-01T08:10:57;0.30;99.90
12853;DHT22;6495;51.808;7.478;2023-03-01T08:13:26;0.50;99.90
12853;DHT22;6495;51.808;7.478;2023-03-01T08:16:01;0.60;99.90
12853;DHT22;6495;51.808;7.478;2023-03-01T08:18:30;0.70;99.90
12853;DHT22;6495;51.808;7.478;2023-03-01T08:21:02;0.80;99.90
12853;DHT22;6495;51.808;7.478;2023-03-01T08:23:30;0.90;99.90
12853;DHT22;6495;51.808;7.478;2023-03-01T08:26:07;1.10;99.90
12853;DHT22;6495;51.808;7.478;2023-03-01T08:28:36;1.20;99.90
12853;DHT22;6495;51.808;7.478;2023-03-01T08:31:15;1.30;99.90
12853;DHT22;6495;51.808;7.478;2023-03-01T08:33:46;1.40;99.90
12853;DHT22;6495;51.808;7.478;2023-03-01T08:36:17;1.60;99.90
12853;DHT22;6495;51.808;7.478;2023-03-01T08:38:47;1.70;99.90
12853;DHT22;6495;51.808;7.478;2023-03-01T08:41:15;1.80;99.90
12853;DHT22;6495;51.808;7.478;2023-03-01T08:43:44;1.90;99.90
12853;DHT22;6495;51.808;7.478;2023-03-01T08:46:14;2.00;99.90
12853;DHT22;6495;51.808;7.478;2023-03-01T08:48:43;2.10;99.90
12853;DHT22;6495;51.808;7.478;2023-03-01T08:51:13;2.30;99.90
12853;DHT22;6495;51.808;7.478;2023-03-01T08:53:43;2.40;99.90
12853;DHT22;6495;51.808;7.478;2023-03-01T08:56:11;2.50;99.90
12853;DHT22;6495;51.808;7.478;2023-03-01T08:58:43;2.60;99.90
12853;DHT22;6495;51.808;7.478;2023-03-01T09:01:14;2.70;99.90
12853;DHT22;6495;51.808;7.478;2023-03-01T09:03:44;2.90;99.90
12853;DHT22;6495;51.808;7.478;2023-03-01T09:06:13;3.00;99.90
12853;DHT22;6495;51.808;7.478;2023-03-01T09:08:43;3.10;99.90
12853;DHT22;6495;51.808;7.478;2023-03-01T09:11:14;3.20;99.90
12853;DHT22;6495;51.808;7.478;2023-03-01T09:13:44;3.30;99.90
12853;DHT22;6495;51.808;7.478;2023-03-01T09:16:16;3.40;99.90
12853;DHT22;6495;51.808;7.478;2023-03-01T09:18:49;3.50;99.90
12853;DHT22;6495;51.808;7.478;2023-03-01T09:21:19;3.60;99.90
12853;DHT22;6495;51.808;7.478;2023-03-01T09:24:05;3.70;99.90
12853;DHT22;6495;51.808;7.478;2023-03-01T09:26:34;3.80;99.90
12853;DHT22;6495;51.808;7.478;2023-03-01T09:29:03;3.90;99.90
12853;DHT22;6495;51.808;7.478;2023-03-01T09:31:32;4.00;99.90
12853;DHT22;6495;51.808;7.478;2023-03-01T09:34:00;4.00;99.90
12853;DHT22;6495;51.808;7.478;2023-03-01T09:36:28;4.10;99.90
12853;DHT22;6495;51.808;7.478;2023-03-01T09:38:57;4.20;99.90
12853;DHT22;6495;51.808;7.478;2023-03-01T09:41:43;4.30;99.90
12853;DHT22;6495;51.808;7.478;2023-03-01T09:44:27;4.40;99.90
12853;DHT22;6495;51.808;7.478;2023-03-01T09:47:00;4.50;99.90
12853;DHT22;6495;51.808;7.478;2023-03-01T09:49:31;4.50;99.90
12853;DHT22;6495;51.808;7.478;2023-03-01T09:52:12;4.60;99.90
12853;DHT22;6495;51.808;7.478;2023-03-01T09:54:49;4.70;99.90
12853;DHT22;6495;51.808;7.478;2023-03-01T09:57:30;4.70;99.90
12853;DHT22;6495;51.808;7.478;2023-03-01T10:00:18;4.80;99.90
12853;DHT22;6495;51.808;7.478;2023-03-01T10:02:58;4.90;99.90
12853;DHT22;6495;51.808;7.478;2023-03-01T10:05:36;4.90;99.90
12853;DHT22;6495;51.808;7.478;2023-03-01T10:08:25;5.00;99.90
12853;DHT22;6495;51.808;7.478;2023-03-01T10:10:58;5.10;99.90
12853;DHT22;6495;51.808;7.478;2023-03-01T10:13:33;5.20;99.90
12853;DHT22;6495;51.808;7.478;2023-03-01T10:16:14;5.20;99.90
12853;DHT22;6495;51.808;7.478;2023-03-01T10:18:58;5.20;99.90
12853;DHT22;6495;51.808;7.478;2023-03-01T10:21:29;5.30;99.90
12853;DHT22;6495;51.808;7.478;2023-03-01T10:24:08;5.30;99.90
12853;DHT22;6495;51.808;7.478;2023-03-01T10:26:47;5.40;99.90
12853;DHT22;6495;51.808;7.478;2023-03-01T10:29:22;5.40;99.90
12853;DHT22;6495;51.808;7.478;2023-03-01T10:31:54;5.50;99.90
12853;DHT22;6495;51.808;7.478;2023-03-01T10:34:30;5.70;99.90
12853;DHT22;6495;51.808;7.478;2023-03-01T10:37:09;5.80;99.90
12853;DHT22;6495;51.808;7.478;2023-03-01T10:39:55;5.90;99.90
12853;DHT22;6495;51.808;7.478;2023-03-01T10:42:34;6.00;99.90
12853;DHT22;6495;51.808;7.478;2023-03-01T10:45:17;6.00;99.90
12853;DHT22;6495;51.808;7.478;2023-03-01T10:48:05;6.10;99.90
12853;DHT22;6495;51.808;7.478;2023-03-01T10:50:42;6.20;99.90
12853;DHT22;6495;51.808;7.478;2023-03-01T10:53:24;6.20;99.90
12853;DHT22;6495;51.808;7.478;2023-03-01T10:56:01;6.30;99.90
12853;DHT22;6495;51.808;7.478;2023-03-01T10:58:32;6.30;99.90
12853;DHT22;6495;51.808;7.478;2023-03-01T11:01:04;6.40;99.90
12853;DHT22;6495;51.808;7.478;2023-03-01T11:03:36;6.40;99.90
12853;DHT22;6495;51.808;7.478;2023-03-01T11:06:21;6.50;99.90
12853;DHT22;6495;51.808;7.478;2023-03-01T11:08:50;6.50;99.90
12853;DHT22;6495;51.808;7.478;2023-03-01T11:11:33;6.50;99.90
12853;DHT22;6495;51.808;7.478;2023-03-01T11:14:06;6.50;99.90
12853;DHT22;6495;51.808;7.478;2023-03-01T11:16:59;6.60;99.90
12853;DHT22;6495;51.808;7.478;2023-03-01T11:19:29;6.70;99.90
12853;DHT22;6495;51.808;7.478;2023-03-01T11:22:02;6.70;99.90
12853;DHT22;6495;51.808;7.478;2023-03-01T11:24:38;6.80;99.90
12853;DHT22;6495;51.808;7.478;2023-03-01T11:27:21;6.80;99.90
12853;DHT22;6495;51.808;7.478;2023-03-01T11:29:55;6.80;99.90
12853;DHT22;6495;51.808;7.478;2023-03-01T11:32:33;6.90;99.90
12853;DHT22;6495;51.808;7.478;2023-03-01T11:35:13;6.90;99.90
12853;DHT22;6495;51.808;7.478;2023-03-01T11:37:58;7.00;99.90
12853;DHT22;6495;51.808;7.478;2023-03-01T11:40:34;7.10;99.90
12853;DHT22;6495;51.808;7.478;2023-03-01T11:43:17;7.20;99.90
12853;DHT22;6495;51.808;7.478;2023-03-01T11:49:48;7.20;99.10
12853;DHT22;6495;51.808;7.478;2023-03-01T11:52:30;7.20;98.80
12853;DHT22;6495;51.808;7.478;2023-03-01T11:55:30;7.20;98.50
12853;DHT22;6495;51.808;7.478;2023-03-01T11:58:22;7.20;98.70
12853;DHT22;6495;51.808;7.478;2023-03-01T12:01:14;7.20;98.80
12853;DHT22;6495;51.808;7.478;2023-03-01T12:06:57;7.30;98.50
12853;DHT22;6495;51.808;7.478;2023-03-01T12:09:39;7.40;98.40
12853;DHT22;6495;51.808;7.478;2023-03-01T12:12:33;7.40;98.80
12853;DHT22;6495;51.808;7.478;2023-03-01T12:15:30;7.40;97.40
12853;DHT22;6495;51.808;7.478;2023-03-01T12:18:26;7.40;97.10
12853;DHT22;6495;51.808;7.478;2023-03-01T12:21:13;7.40;97.00
12853;DHT22;6495;51.808;7.478;2023-03-01T12:24:04;7.40;97.40
12853;DHT22;6495;51.808;7.478;2023-03-01T12:26:48;7.50;96.80
12853;DHT22;6495;51.808;7.478;2023-03-01T12:29:34;7.50;97.60
12853;DHT22;6495;51.808;7.478;2023-03-01T12:32:26;7.60;97.60
12853;DHT22;6495;51.808;7.478;2023-03-01T12:35:41;7.60;96.70
12853;DHT22;6495;51.808;7.478;2023-03-01T12:38:40;7.70;96.70
12853;DHT22;6495;51.808;7.478;2023-03-01T12:44:19;7.70;97.40
12853;DHT22;6495;51.808;7.478;2023-03-01T12:47:23;7.70;96.60
12853;DHT22;6495;51.808;7.478;2023-03-01T12:50:02;7.70;96.90
12853;DHT22;6495;51.808;7.478;2023-03-01T12:52:41;7.70;97.00
12853;DHT22;6495;51.808;7.478;2023-03-01T12:55:23;7.70;96.60
12853;DHT22;6495;51.808;7.478;2023-03-01T12:58:03;7.60;95.80
12853;DHT22;6495;51.808;7.478;2023-03-01T13:00:45;7.60;95.90
12853;DHT22;6495;51.808;7.478;2023-03-01T13:03:27;7.50;95.90
12853;DHT22;6495;51.808;7.478;2023-03-01T13:06:07;7.50;95.20
12853;DHT22;6495;51.808;7.478;2023-03-01T13:08:45;7.40;95.60
12853;DHT22;6495;51.808;7.478;2023-03-01T13:11:19;7.30;95.00
12853;DHT22;6495;51.808;7.478;2023-03-01T13:13:49;7.30;95.40
12853;DHT22;6495;51.808;7.478;2023-03-01T13:19:16;7.20;95.20
12853;DHT22;6495;51.808;7.478;2023-03-01T13:21:46;7.20;95.30
12853;DHT22;6495;51.808;7.478;2023-03-01T13:24:28;7.20;95.50
12853;DHT22;6495;51.808;7.478;2023-03-01T13:27:24;7.20;95.90
12853;DHT22;6495;51.808;7.478;2023-03-01T13:29:57;7.20;95.70
12853;DHT22;6495;51.808;7.478;2023-03-01T13:32:31;7.20;96.20
12853;DHT22;6495;51.808;7.478;2023-03-01T13:35:43;7.10;95.70
12853;DHT22;6495;51.808;7.478;2023-03-01T13:38:38;7.10;95.60
12853;DHT22;6495;51.808;7.478;2023-03-01T13:41:13;7.10;95.50
12853;DHT22;6495;51.808;7.478;2023-03-01T13:43:43;7.10;95.40
12853;DHT22;6495;51.808;7.478;2023-03-01T13:46:17;7.10;96.40
12853;DHT22;6495;51.808;7.478;2023-03-01T13:48:51;7.10;96.60
12853;DHT22;6495;51.808;7.478;2023-03-01T13:51:26;7.10;96.30
12853;DHT22;6495;51.808;7.478;2023-03-01T13:53:56;7.10;96.50
12853;DHT22;6495;51.808;7.478;2023-03-01T13:56:28;7.00;96.10
12853;DHT22;6495;51.808;7.478;2023-03-01T13:59:03;7.00;96.50
12853;DHT22;6495;51.808;7.478;2023-03-01T14:01:35;7.00;95.70
12853;DHT22;6495;51.808;7.478;2023-03-01T14:04:19;7.00;96.10
12853;DHT22;6495;51.808;7.478;2023-03-01T14:06:50;7.00;96.30
12853;DHT22;6495;51.808;7.478;2023-03-01T14:09:20;7.00;96.10
12853;DHT22;6495;51.808;7.478;2023-03-01T14:12:16;7.00;96.00
12853;DHT22;6495;51.808;7.478;2023-03-01T14:14:58;7.00;96.20
12853;DHT22;6495;51.808;7.478;2023-03-01T14:17:47;7.00;96.10
12853;DHT22;6495;51.808;7.478;2023-03-01T14:20:25;7.00;94.80
12853;DHT22;6495;51.808;7.478;2023-03-01T14:22:58;7.00;95.70
12853;DHT22;6495;51.808;7.478;2023-03-01T14:25:31;6.90;95.60
12853;DHT22;6495;51.808;7.478;2023-03-01T14:28:04;7.00;95.30
12853;DHT22;6495;51.808;7.478;2023-03-01T14:30:44;6.90;95.30
12853;DHT22;6495;51.808;7.478;2023-03-01T14:33:24;6.90;94.70
12853;DHT22;6495;51.808;7.478;2023-03-01T14:35:56;6.90;95.70
12853;DHT22;6495;51.808;7.478;2023-03-01T14:38:33;6.90;95.90
12853;DHT22;6495;51.808;7.478;2023-03-01T14:41:06;6.90;95.70
12853;DHT22;6495;51.808;7.478;2023-03-01T14:43:37;7.00;96.20
12853;DHT22;6495;51.808;7.478;2023-03-01T14:46:18;7.00;95.50
12853;DHT22;6495;51.808;7.478;2023-03-01T14:48:50;7.00;95.10
12853;DHT22;6495;51.808;7.478;2023-03-01T14:51:20;7.00;94.90
12853;DHT22;6495;51.808;7.478;2023-03-01T14:53:50;7.00;95.40
12853;DHT22;6495;51.808;7.478;2023-03-01T14:56:19;7.00;95.00
12853;DHT22;6495;51.808;7.478;2023-03-01T14:58:51;7.00;94.50
12853;DHT22;6495;51.808;7.478;2023-03-01T15:01:21;7.00;94.70
12853;DHT22;6495;51.808;7.478;2023-03-01T15:03:50;6.90;94.60
12853;DHT22;6495;51.808;7.478;2023-03-01T15:06:21;7.00;94.60
12853;DHT22;6495;51.808;7.478;2023-03-01T15:08:53;7.00;95.00
12853;DHT22;6495;51.808;7.478;2023-03-01T15:11:27;7.00;94.60
12853;DHT22;6495;51.808;7.478;2023-03-01T15:13:57;7.00;94.50
12853;DHT22;6495;51.808;7.478;2023-03-01T15:16:27;7.00;94.40
12853;DHT22;6495;51.808;7.478;2023-03-01T15:19:00;7.00;94.20
12853;DHT22;6495;51.808;7.478;2023-03-01T15:21:32;7.10;94.70
12853;DHT22;6495;51.808;7.478;2023-03-01T15:24:07;7.10;94.80
12853;DHT22;6495;51.808;7.478;2023-03-01T15:26:51;7.10;94.50
12853;DHT22;6495;51.808;7.478;2023-03-01T15:29:26;7.10;94.50
12853;DHT22;6495;51.808;7.478;2023-03-01T15:31:59;7.20;94.60
12853;DHT22;6495;51.808;7.478;2023-03-01T15:34:32;7.20;94.70
12853;DHT22;6495;51.808;7.478;2023-03-01T15:37:02;7.20;94.80
12853;DHT22;6495;51.808;7.478;2023-03-01T15:39:38;7.20;94.60
12853;DHT22;6495;51.808;7.478;2023-03-01T15:42:11;7.20;94.40
12853;DHT22;6495;51.808;7.478;2023-03-01T15:44:43;7.20;94.20
12853;DHT22;6495;51.808;7.478;2023-03-01T15:47:26;7.20;94.10
12853;DHT22;6495;51.808;7.478;2023-03-01T15:49:57;7.10;93.50
12853;DHT22;6495;51.808;7.478;2023-03-01T15:52:34;7.10;93.70
12853;DHT22;6495;51.808;7.478;2023-03-01T15:55:17;7.10;94.10
12853;DHT22;6495;51.808;7.478;2023-03-01T15:57:48;7.00;93.80
12853;DHT22;6495;51.808;7.478;2023-03-01T16:00:18;7.00;93.40
12853;DHT22;6495;51.808;7.478;2023-03-01T16:02:47;6.90;93.60
12853;DHT22;6495;51.808;7.478;2023-03-01T16:05:20;6.90;94.00
12853;DHT22;6495;51.808;7.478;2023-03-01T16:07:52;6.90;93.80
12853;DHT22;6495;51.808;7.478;2023-03-01T16:10:22;6.80;93.50
12853;DHT22;6495;51.808;7.478;2023-03-01T16:12:55;6.80;93.00
12853;DHT22;6495;51.808;7.478;2023-03-01T16:15:26;6.70;93.00
12853;DHT22;6495;51.808;7.478;2023-03-01T16:17:59;6.70;93.30
12853;DHT22;6495;51.808;7.478;2023-03-01T16:20:27;6.70;93.20
12853;DHT22;6495;51.808;7.478;2023-03-01T16:23:04;6.70;93.00
12853;DHT22;6495;51.808;7.478;2023-03-01T16:25:36;6.70;93.10
12853;DHT22;6495;51.808;7.478;2023-03-01T16:28:06;6.60;93.50
12853;DHT22;6495;51.808;7.478;2023-03-01T16:30:38;6.60;92.90
12853;DHT22;6495;51.808;7.478;2023-03-01T16:33:07;6.50;93.20
12853;DHT22;6495;51.808;7.478;2023-03-01T16:35:55;6.50;93.50
12853;DHT22;6495;51.808;7.478;2023-03-01T16:38:26;6.50;93.10
12853;DHT22;6495;51.808;7.478;2023-03-01T16:40:57;6.50;93.70
12853;DHT22;6495;51.808;7.478;2023-03-01T16:43:26;6.40;93.50
12853;DHT22;6495;51.808;7.478;2023-03-01T16:45:55;6.40;93.10
12853;DHT22;6495;51.808;7.478;2023-03-01T16:48:23;6.30;92.90